sensor_id;sensor_type;location;lat;lon;timestamp;P1;durP1;ratioP1;P2;durP2;ratioP2
2031;SDS011;27625;50.422;7.944;2023-10-08T00:02:22;6.43;;;3.43;;
2031;SDS011;27625;50.422;7.944;2023-10-08T00:04:52;7.40;;;3.70;;
2031;SDS011;27625;50.422;7.944;2023-10-08T00:07:20;6.90;;;3.70;;
2031;SDS011;27625;50.422;7.944;2023-10-08T00:09:48;6.20;;;3.60;;
2031;SDS011;27625;50.422;7.944;2023-10-08T00:12:17;5.13;;;3.40;;
2031;SDS011;27625;50.422;7.944;2023-10-08T00:14:44;7.03;;;4.30;;
2031;SDS011;27625;50.422;7.944;2023-10-08T00:17:15;6.90;;;3.50;;
2031;SDS011;27625;50.422;7.944;2023-10-08T00:19:42;5.47;;;3.10;;
2031;SDS011;27625;50.422;7.944;2023-10-08T00:22:13;5.37;;;3.33;;
2031;SDS011;27625;50.422;7.944;2023-10-08T00:24:43;7.67;;;4.03;;
2031;SDS011;27625;50.422;7.944;2023-10-08T00:27:12;5.90;;;3.30;;
2031;SDS011;27625;50.422;7.944;2023-10-08T00:29:41;4.60;;;3.10;;
2031;SDS011;27625;50.422;7.944;2023-10-08T00:32:08;5.87;;;3.27;;
2031;SDS011;27625;50.422;7.944;2023-10-08T00:34:40;6.53;;;3.30;;
2031;SDS011;27625;50.422;7.944;2023-10-08T00:37:09;6.90;;;3.60;;
2031;SDS011;27625;50.422;7.944;2023-10-08T00:39:41;6.10;;;3.40;;
2031;SDS011;27625;50.422;7.944;2023-10-08T00:44:39;8.63;;;3.43;;
2031;SDS011;27625;50.422;7.944;2023-10-08T00:47:15;6.77;;;3.47;;
2031;SDS011;27625;50.422;7.944;2023-10-08T00:49:51;6.07;;;3.40;;
2031;SDS011;27625;50.422;7.944;2023-10-08T00:52:29;4.80;;;3.50;;
2031;SDS011;27625;50.422;7.944;2023-10-08T00:55:06;6.80;;;3.80;;
2031;SDS011;27625;50.422;7.944;2023-10-08T00:57:47;5.87;;;3.67;;
2031;SDS011;27625;50.422;7.944;2023-10-08T01:00:18;7.07;;;3.67;;
2031;SDS011;27625;50.422;7.944;2023-10-08T01:02:52;5.47;;;3.77;;
2031;SDS011;27625;50.422;7.944;2023-10-08T01:05:25;6.60;;;3.60;;
2031;SDS011;27625;50.422;7.944;2023-10-08T01:08:02;8.63;;;3.60;;
2031;SDS011;27625;50.422;7.944;2023-10-08T01:10:33;6.20;;;3.00;;
2031;SDS011;27625;50.422;7.944;2023-10-08T01:13:00;7.03;;;3.70;;
2031;SDS011;27625;50.422;7.944;2023-10-08T01:15:33;7.60;;;3.80;;
2031;SDS011;27625;50.422;7.944;2023-10-08T01:18:03;5.13;;;3.17;;
2031;SDS011;27625;50.422;7.944;2023-10-08T01:20:33;6.37;;;3.37;;
2031;SDS011;27625;50.422;7.944;2023-10-08T01:23:03;4.73;;;3.23;;
2031;SDS011;27625;50.422;7.944;2023-10-08T01:25:36;8.33;;;3.10;;
2031;SDS011;27625;50.422;7.944;2023-10-08T01:28:06;6.20;;;3.50;;
2031;SDS011;27625;50.422;7.944;2023-10-08T01:30:39;6.97;;;3.70;;
2031;SDS011;27625;50.422;7.944;2023-10-08T01:33:08;7.00;;;3.77;;
2031;SDS011;27625;50.422;7.944;2023-10-08T01:35:40;5.80;;;3.40;;
2031;SDS011;27625;50.422;7.944;2023-10-08T01:40:43;5.67;;;3.30;;
2031;SDS011;27625;50.422;7.944;2023-10-08T01:43:17;6.87;;;3.70;;
2031;SDS011;27625;50.422;7.944;2023-10-08T01:45:45;5.23;;;3.53;;
2031;SDS011;27625;50.422;7.944;2023-10-08T01:48:13;7.20;;;3.70;;
2031;SDS011;27625;50.422;7.944;2023-10-08T01:50:45;6.63;;;3.10;;
2031;SDS011;27625;50.422;7.944;2023-10-08T01:53:15;8.10;;;3.90;;
2031;SDS011;27625;50.422;7.944;2023-10-08T01:55:47;6.93;;;3.23;;
2031;SDS011;27625;50.422;7.944;2023-10-08T01:58:15;7.63;;;3.70;;
2031;SDS011;27625;50.422;7.944;2023-10-08T02:00:49;4.70;;;3.30;;
2031;SDS011;27625;50.422;7.944;2023-10-08T02:03:17;6.93;;;3.60;;
2031;SDS011;27625;50.422;7.944;2023-10-08T02:05:44;5.13;;;3.33;;
2031;SDS011;27625;50.422;7.944;2023-10-08T02:08:12;6.33;;;3.53;;
2031;SDS011;27625;50.422;7.944;2023-10-08T02:10:49;4.90;;;3.30;;
2031;SDS011;27625;50.422;7.944;2023-10-08T02:13:15;4.30;;;2.60;;
2031;SDS011;27625;50.422;7.944;2023-10-08T02:15:45;6.73;;;3.73;;
2031;SDS011;27625;50.422;7.944;2023-10-08T02:18:16;6.27;;;3.90;;
2031;SDS011;27625;50.422;7.944;2023-10-08T02:20:45;5.67;;;3.53;;
2031;SDS011;27625;50.422;7.944;2023-10-08T02:23:13;5.57;;;3.07;;
2031;SDS011;27625;50.422;7.944;2023-10-08T02:25:42;7.70;;;3.37;;
2031;SDS011;27625;50.422;7.944;2023-10-08T02:28:14;6.87;;;4.40;;
2031;SDS011;27625;50.422;7.944;2023-10-08T02:30:45;6.17;;;3.73;;
2031;SDS011;27625;50.422;7.944;2023-10-08T02:35:49;7.20;;;3.77;;
2031;SDS011;27625;50.422;7.944;2023-10-08T02:38:19;6.60;;;3.50;;
2031;SDS011;27625;50.422;7.944;2023-10-08T02:40:48;6.73;;;4.00;;
2031;SDS011;27625;50.422;7.944;2023-10-08T02:43:18;8.33;;;4.13;;
2031;SDS011;27625;50.422;7.944;2023-10-08T02:45:45;8.77;;;3.90;;
2031;SDS011;27625;50.422;7.944;2023-10-08T02:48:14;7.17;;;2.90;;
2031;SDS011;27625;50.422;7.944;2023-10-08T02:50:54;7.03;;;3.90;;
2031;SDS011;27625;50.422;7.944;2023-10-08T02:53:38;6.30;;;3.60;;
2031;SDS011;27625;50.422;7.944;2023-10-08T02:56:08;9.83;;;4.13;;
2031;SDS011;27625;50.422;7.944;2023-10-08T02:58:40;9.13;;;3.40;;
2031;SDS011;27625;50.422;7.944;2023-10-08T03:01:09;5.50;;;3.40;;
2031;SDS011;27625;50.422;7.944;2023-10-08T03:03:44;9.13;;;4.13;;
2031;SDS011;27625;50.422;7.944;2023-10-08T03:06:11;6.60;;;3.90;;
2031;SDS011;27625;50.422;7.944;2023-10-08T03:08:42;5.13;;;3.40;;
2031;SDS011;27625;50.422;7.944;2023-10-08T03:11:10;6.83;;;3.50;;
2031;SDS011;27625;50.422;7.944;2023-10-08T03:13:51;5.90;;;3.07;;
2031;SDS011;27625;50.422;7.944;2023-10-08T03:16:22;5.53;;;3.60;;
2031;SDS011;27625;50.422;7.944;2023-10-08T03:18:59;8.57;;;3.60;;
2031;SDS011;27625;50.422;7.944;2023-10-08T03:21:26;7.13;;;3.20;;
2031;SDS011;27625;50.422;7.944;2023-10-08T03:26:56;5.67;;;3.80;;
2031;SDS011;27625;50.422;7.944;2023-10-08T03:29:34;5.73;;;3.50;;
2031;SDS011;27625;50.422;7.944;2023-10-08T03:32:13;6.90;;;4.63;;
2031;SDS011;27625;50.422;7.944;2023-10-08T03:34:45;4.17;;;2.97;;
2031;SDS011;27625;50.422;7.944;2023-10-08T03:37:15;8.30;;;3.67;;
2031;SDS011;27625;50.422;7.944;2023-10-08T03:39:46;5.23;;;3.53;;
2031;SDS011;27625;50.422;7.944;2023-10-08T03:42:40;7.10;;;3.80;;
2031;SDS011;27625;50.422;7.944;2023-10-08T03:45:08;7.10;;;3.80;;
2031;SDS011;27625;50.422;7.944;2023-10-08T03:47:44;7.27;;;4.07;;
2031;SDS011;27625;50.422;7.944;2023-10-08T03:50:11;6.00;;;3.27;;
2031;SDS011;27625;50.422;7.944;2023-10-08T03:52:44;5.60;;;4.07;;
2031;SDS011;27625;50.422;7.944;2023-10-08T03:55:14;6.33;;;3.60;;
2031;SDS011;27625;50.422;7.944;2023-10-08T03:57:51;5.30;;;3.73;;
2031;SDS011;27625;50.422;7.944;2023-10-08T04:00:24;9.83;;;3.57;;
2031;SDS011;27625;50.422;7.944;2023-10-08T04:03:06;5.93;;;3.80;;
2031;SDS011;27625;50.422;7.944;2023-10-08T04:05:39;5.10;;;3.10;;
2031;SDS011;27625;50.422;7.944;2023-10-08T04:08:25;6.60;;;3.40;;
2031;SDS011;27625;50.422;7.944;2023-10-08T04:11:08;6.20;;;3.93;;
2031;SDS011;27625;50.422;7.944;2023-10-08T04:13:48;7.70;;;4.13;;
2031;SDS011;27625;50.422;7.944;2023-10-08T04:16:20;5.40;;;3.37;;
2031;SDS011;27625;50.422;7.944;2023-10-08T04:18:47;8.13;;;4.53;;
2031;SDS011;27625;50.422;7.944;2023-10-08T04:21:21;6.77;;;4.20;;
2031;SDS011;27625;50.422;7.944;2023-10-08T04:23:52;7.30;;;4.43;;
2031;SDS011;27625;50.422;7.944;2023-10-08T04:26:22;5.60;;;3.73;;
2031;SDS011;27625;50.422;7.944;2023-10-08T04:28:55;9.40;;;4.40;;
2031;SDS011;27625;50.422;7.944;2023-10-08T04:31:25;6.60;;;3.97;;
2031;SDS011;27625;50.422;7.944;2023-10-08T04:34:03;7.20;;;3.87;;
2031;SDS011;27625;50.422;7.944;2023-10-08T04:36:42;4.83;;;3.30;;
2031;SDS011;27625;50.422;7.944;2023-10-08T04:39:13;5.77;;;3.47;;
2031;SDS011;27625;50.422;7.944;2023-10-08T04:41:46;6.97;;;3.90;;
2031;SDS011;27625;50.422;7.944;2023-10-08T04:44:18;8.27;;;4.53;;
2031;SDS011;27625;50.422;7.944;2023-10-08T04:46:48;6.57;;;4.37;;
2031;SDS011;27625;50.422;7.944;2023-10-08T04:49:17;6.20;;;4.10;;
2031;SDS011;27625;50.422;7.944;2023-10-08T04:51:54;8.23;;;4.33;;
2031;SDS011;27625;50.422;7.944;2023-10-08T04:54:29;6.80;;;4.13;;
2031;SDS011;27625;50.422;7.944;2023-10-08T04:57:01;7.40;;;4.10;;
2031;SDS011;27625;50.422;7.944;2023-10-08T04:59:31;6.90;;;4.00;;
2031;SDS011;27625;50.422;7.944;2023-10-08T05:02:03;6.67;;;3.80;;
2031;SDS011;27625;50.422;7.944;2023-10-08T05:04:47;6.60;;;4.17;;
2031;SDS011;27625;50.422;7.944;2023-10-08T05:07:48;7.17;;;4.20;;
2031;SDS011;27625;50.422;7.944;2023-10-08T05:10:27;6.07;;;4.10;;
2031;SDS011;27625;50.422;7.944;2023-10-08T05:13:11;6.10;;;4.40;;
2031;SDS011;27625;50.422;7.944;2023-10-08T05:15:55;34.90;;;14.90;;
2031;SDS011;27625;50.422;7.944;2023-10-08T05:18:38;26.07;;;12.83;;
2031;SDS011;27625;50.422;7.944;2023-10-08T05:21:32;19.97;;;11.57;;
2031;SDS011;27625;50.422;7.944;2023-10-08T05:24:16;19.60;;;9.20;;
2031;SDS011;27625;50.422;7.944;2023-10-08T05:26:54;12.43;;;7.03;;
2031;SDS011;27625;50.422;7.944;2023-10-08T05:29:46;7.47;;;4.50;;
2031;SDS011;27625;50.422;7.944;2023-10-08T05:32:37;6.47;;;4.20;;
2031;SDS011;27625;50.422;7.944;2023-10-08T05:35:19;6.47;;;4.50;;
2031;SDS011;27625;50.422;7.944;2023-10-08T05:38:14;9.57;;;4.57;;
2031;SDS011;27625;50.422;7.944;2023-10-08T05:40:49;5.40;;;3.87;;
2031;SDS011;27625;50.422;7.944;2023-10-08T05:43:33;8.33;;;4.63;;
2031;SDS011;27625;50.422;7.944;2023-10-08T05:46:26;12.80;;;6.20;;
2031;SDS011;27625;50.422;7.944;2023-10-08T05:49:11;8.33;;;4.97;;
2031;SDS011;27625;50.422;7.944;2023-10-08T05:52:06;7.33;;;4.60;;
2031;SDS011;27625;50.422;7.944;2023-10-08T05:54:52;8.13;;;5.10;;
2031;SDS011;27625;50.422;7.944;2023-10-08T05:57:39;10.10;;;6.40;;
2031;SDS011;27625;50.422;7.944;2023-10-08T06:00:12;8.43;;;5.90;;
2031;SDS011;27625;50.422;7.944;2023-10-08T06:02:59;8.50;;;6.10;;
2031;SDS011;27625;50.422;7.944;2023-10-08T06:05:42;7.33;;;5.43;;
2031;SDS011;27625;50.422;7.944;2023-10-08T06:08:30;8.70;;;5.10;;
2031;SDS011;27625;50.422;7.944;2023-10-08T06:11:16;7.80;;;5.33;;
2031;SDS011;27625;50.422;7.944;2023-10-08T06:14:04;8.37;;;4.50;;
2031;SDS011;27625;50.422;7.944;2023-10-08T06:16:39;7.57;;;4.80;;
2031;SDS011;27625;50.422;7.944;2023-10-08T06:19:12;11.80;;;4.47;;
2031;SDS011;27625;50.422;7.944;2023-10-08T06:21:40;8.90;;;5.63;;
2031;SDS011;27625;50.422;7.944;2023-10-08T06:24:08;16.10;;;9.03;;
2031;SDS011;27625;50.422;7.944;2023-10-08T06:26:36;10.77;;;5.40;;
2031;SDS011;27625;50.422;7.944;2023-10-08T06:29:09;7.93;;;5.00;;
2031;SDS011;27625;50.422;7.944;2023-10-08T06:31:57;7.63;;;4.60;;
2031;SDS011;27625;50.422;7.944;2023-10-08T06:34:28;7.73;;;4.50;;
2031;SDS011;27625;50.422;7.944;2023-10-08T06:36:59;6.57;;;4.33;;
2031;SDS011;27625;50.422;7.944;2023-10-08T06:39:28;7.70;;;4.60;;
2031;SDS011;27625;50.422;7.944;2023-10-08T06:42:18;7.87;;;3.77;;
2031;SDS011;27625;50.422;7.944;2023-10-08T06:44:45;8.10;;;4.80;;
2031;SDS011;27625;50.422;7.944;2023-10-08T06:49:44;7.37;;;4.27;;
2031;SDS011;27625;50.422;7.944;2023-10-08T06:52:11;8.37;;;4.23;;
2031;SDS011;27625;50.422;7.944;2023-10-08T06:54:42;9.83;;;4.33;;
2031;SDS011;27625;50.422;7.944;2023-10-08T06:57:09;6.93;;;4.50;;
2031;SDS011;27625;50.422;7.944;2023-10-08T06:59:38;6.20;;;4.23;;
2031;SDS011;27625;50.422;7.944;2023-10-08T07:02:10;6.27;;;3.93;;
2031;SDS011;27625;50.422;7.944;2023-10-08T07:04:42;10.63;;;4.23;;
2031;SDS011;27625;50.422;7.944;2023-10-08T07:07:16;8.70;;;4.53;;
2031;SDS011;27625;50.422;7.944;2023-10-08T07:09:45;8.13;;;4.97;;
2031;SDS011;27625;50.422;7.944;2023-10-08T07:12:14;8.43;;;5.13;;
2031;SDS011;27625;50.422;7.944;2023-10-08T07:14:41;7.07;;;4.90;;
2031;SDS011;27625;50.422;7.944;2023-10-08T07:17:10;10.00;;;6.00;;
2031;SDS011;27625;50.422;7.944;2023-10-08T07:19:46;10.50;;;6.10;;
2031;SDS011;27625;50.422;7.944;2023-10-08T07:22:16;8.03;;;5.40;;
2031;SDS011;27625;50.422;7.944;2023-10-08T07:24:48;13.70;;;7.80;;
2031;SDS011;27625;50.422;7.944;2023-10-08T07:27:17;12.83;;;6.63;;
2031;SDS011;27625;50.422;7.944;2023-10-08T07:29:46;12.63;;;6.57;;
2031;SDS011;27625;50.422;7.944;2023-10-08T07:32:16;9.50;;;5.70;;
2031;SDS011;27625;50.422;7.944;2023-10-08T07:34:46;7.97;;;4.33;;
2031;SDS011;27625;50.422;7.944;2023-10-08T07:37:13;7.97;;;4.73;;
2031;SDS011;27625;50.422;7.944;2023-10-08T07:39:41;5.53;;;3.70;;
2031;SDS011;27625;50.422;7.944;2023-10-08T07:42:13;7.90;;;5.13;;
2031;SDS011;27625;50.422;7.944;2023-10-08T07:44:39;6.10;;;4.03;;
2031;SDS011;27625;50.422;7.944;2023-10-08T07:47:06;6.03;;;4.00;;
2031;SDS011;27625;50.422;7.944;2023-10-08T07:49:38;7.10;;;5.00;;
2031;SDS011;27625;50.422;7.944;2023-10-08T07:52:05;10.03;;;5.30;;
2031;SDS011;27625;50.422;7.944;2023-10-08T07:54:33;7.07;;;3.80;;
2031;SDS011;27625;50.422;7.944;2023-10-08T07:57:01;7.17;;;4.10;;
2031;SDS011;27625;50.422;7.944;2023-10-08T07:59:43;14.20;;;4.70;;
2031;SDS011;27625;50.422;7.944;2023-10-08T08:02:16;7.20;;;4.07;;
2031;SDS011;27625;50.422;7.944;2023-10-08T08:04:49;7.83;;;4.53;;
2031;SDS011;27625;50.422;7.944;2023-10-08T08:07:18;11.67;;;4.47;;
2031;SDS011;27625;50.422;7.944;2023-10-08T08:09:46;8.63;;;3.93;;
2031;SDS011;27625;50.422;7.944;2023-10-08T08:12:16;6.80;;;4.20;;
2031;SDS011;27625;50.422;7.944;2023-10-08T08:14:45;6.77;;;4.20;;
2031;SDS011;27625;50.422;7.944;2023-10-08T08:17:14;8.03;;;3.97;;
2031;SDS011;27625;50.422;7.944;2023-10-08T08:19:41;9.47;;;3.60;;
2031;SDS011;27625;50.422;7.944;2023-10-08T08:22:11;9.50;;;4.40;;
2031;SDS011;27625;50.422;7.944;2023-10-08T08:24:46;8.77;;;4.33;;
2031;SDS011;27625;50.422;7.944;2023-10-08T08:27:13;8.30;;;4.37;;
2031;SDS011;27625;50.422;7.944;2023-10-08T08:29:56;8.33;;;4.33;;
2031;SDS011;27625;50.422;7.944;2023-10-08T08:32:31;6.60;;;3.90;;
2031;SDS011;27625;50.422;7.944;2023-10-08T08:34:58;6.53;;;4.07;;
2031;SDS011;27625;50.422;7.944;2023-10-08T08:37:25;13.90;;;4.53;;
2031;SDS011;27625;50.422;7.944;2023-10-08T08:40:00;7.63;;;3.60;;
2031;SDS011;27625;50.422;7.944;2023-10-08T08:42:30;9.00;;;3.70;;
2031;SDS011;27625;50.422;7.944;2023-10-08T08:45:03;10.30;;;4.43;;
2031;SDS011;27625;50.422;7.944;2023-10-08T08:47:33;8.80;;;4.20;;
2031;SDS011;27625;50.422;7.944;2023-10-08T08:50:02;6.03;;;3.50;;
2031;SDS011;27625;50.422;7.944;2023-10-08T08:52:33;7.63;;;3.53;;
2031;SDS011;27625;50.422;7.944;2023-10-08T08:55:02;6.00;;;3.50;;
2031;SDS011;27625;50.422;7.944;2023-10-08T08:57:33;8.60;;;4.10;;
2031;SDS011;27625;50.422;7.944;2023-10-08T09:00:00;7.47;;;3.90;;
2031;SDS011;27625;50.422;7.944;2023-10-08T09:02:34;5.30;;;3.40;;
2031;SDS011;27625;50.422;7.944;2023-10-08T09:05:04;6.40;;;3.77;;
2031;SDS011;27625;50.422;7.944;2023-10-08T09:07:51;7.27;;;4.00;;
2031;SDS011;27625;50.422;7.944;2023-10-08T09:10:20;7.60;;;3.90;;
2031;SDS011;27625;50.422;7.944;2023-10-08T09:12:51;9.57;;;4.07;;
2031;SDS011;27625;50.422;7.944;2023-10-08T09:15:20;6.30;;;3.93;;
2031;SDS011;27625;50.422;7.944;2023-10-08T09:17:48;6.40;;;3.80;;
2031;SDS011;27625;50.422;7.944;2023-10-08T09:20:14;10.00;;;4.10;;
2031;SDS011;27625;50.422;7.944;2023-10-08T09:22:43;6.87;;;3.93;;
2031;SDS011;27625;50.422;7.944;2023-10-08T09:25:16;11.47;;;3.87;;
2031;SDS011;27625;50.422;7.944;2023-10-08T09:27:50;6.60;;;3.97;;
2031;SDS011;27625;50.422;7.944;2023-10-08T09:30:23;7.53;;;4.47;;
2031;SDS011;27625;50.422;7.944;2023-10-08T09:32:51;6.30;;;3.60;;
2031;SDS011;27625;50.422;7.944;2023-10-08T09:35:19;4.90;;;3.37;;
2031;SDS011;27625;50.422;7.944;2023-10-08T09:37:45;6.43;;;3.60;;
2031;SDS011;27625;50.422;7.944;2023-10-08T09:40:13;6.67;;;4.30;;
2031;SDS011;27625;50.422;7.944;2023-10-08T09:42:47;7.90;;;4.70;;
2031;SDS011;27625;50.422;7.944;2023-10-08T09:45:14;8.17;;;4.30;;
2031;SDS011;27625;50.422;7.944;2023-10-08T09:47:44;6.17;;;4.00;;
2031;SDS011;27625;50.422;7.944;2023-10-08T09:50:14;5.73;;;3.60;;
2031;SDS011;27625;50.422;7.944;2023-10-08T09:52:46;8.33;;;4.40;;
2031;SDS011;27625;50.422;7.944;2023-10-08T09:55:17;7.93;;;4.60;;
2031;SDS011;27625;50.422;7.944;2023-10-08T09:57:45;8.53;;;4.13;;
2031;SDS011;27625;50.422;7.944;2023-10-08T10:00:13;11.17;;;4.20;;
2031;SDS011;27625;50.422;7.944;2023-10-08T10:02:46;5.53;;;3.73;;
2031;SDS011;27625;50.422;7.944;2023-10-08T10:05:17;6.30;;;3.80;;
2031;SDS011;27625;50.422;7.944;2023-10-08T10:07:53;6.50;;;4.03;;
2031;SDS011;27625;50.422;7.944;2023-10-08T10:10:25;8.63;;;4.30;;
2031;SDS011;27625;50.422;7.944;2023-10-08T10:12:58;6.33;;;4.00;;
2031;SDS011;27625;50.422;7.944;2023-10-08T10:15:25;6.00;;;3.57;;
2031;SDS011;27625;50.422;7.944;2023-10-08T10:17:59;5.20;;;3.73;;
2031;SDS011;27625;50.422;7.944;2023-10-08T10:20:41;6.40;;;4.03;;
2031;SDS011;27625;50.422;7.944;2023-10-08T10:26:05;6.77;;;3.87;;
2031;SDS011;27625;50.422;7.944;2023-10-08T10:28:34;5.67;;;4.00;;
2031;SDS011;27625;50.422;7.944;2023-10-08T10:31:03;11.97;;;4.80;;
2031;SDS011;27625;50.422;7.944;2023-10-08T10:33:31;8.50;;;4.27;;
2031;SDS011;27625;50.422;7.944;2023-10-08T10:36:00;7.63;;;4.30;;
2031;SDS011;27625;50.422;7.944;2023-10-08T10:38:27;7.93;;;4.53;;
2031;SDS011;27625;50.422;7.944;2023-10-08T10:40:55;6.70;;;3.93;;
2031;SDS011;27625;50.422;7.944;2023-10-08T10:43:24;7.63;;;4.70;;
2031;SDS011;27625;50.422;7.944;2023-10-08T10:45:58;5.17;;;3.20;;
2031;SDS011;27625;50.422;7.944;2023-10-08T10:48:34;11.33;;;4.57;;
2031;SDS011;27625;50.422;7.944;2023-10-08T10:51:06;8.27;;;3.97;;
2031;SDS011;27625;50.422;7.944;2023-10-08T10:53:36;9.23;;;4.50;;
2031;SDS011;27625;50.422;7.944;2023-10-08T10:56:11;7.27;;;4.30;;
2031;SDS011;27625;50.422;7.944;2023-10-08T10:58:45;8.00;;;4.20;;
2031;SDS011;27625;50.422;7.944;2023-10-08T11:01:18;8.20;;;4.17;;
2031;SDS011;27625;50.422;7.944;2023-10-08T11:03:51;8.20;;;4.27;;
2031;SDS011;27625;50.422;7.944;2023-10-08T11:06:19;7.67;;;3.73;;
2031;SDS011;27625;50.422;7.944;2023-10-08T11:08:49;11.83;;;4.30;;
2031;SDS011;27625;50.422;7.944;2023-10-08T11:11:17;5.90;;;3.60;;
2031;SDS011;27625;50.422;7.944;2023-10-08T11:13:44;8.10;;;4.50;;
2031;SDS011;27625;50.422;7.944;2023-10-08T11:16:17;9.20;;;4.70;;
2031;SDS011;27625;50.422;7.944;2023-10-08T11:18:47;7.30;;;4.30;;
2031;SDS011;27625;50.422;7.944;2023-10-08T11:21:17;7.50;;;4.27;;
2031;SDS011;27625;50.422;7.944;2023-10-08T11:23:49;7.23;;;3.87;;
2031;SDS011;27625;50.422;7.944;2023-10-08T11:26:21;8.90;;;4.40;;
2031;SDS011;27625;50.422;7.944;2023-10-08T11:28:57;9.50;;;4.80;;
2031;SDS011;27625;50.422;7.944;2023-10-08T11:31:26;9.27;;;4.20;;
2031;SDS011;27625;50.422;7.944;2023-10-08T11:33:58;8.87;;;4.93;;
2031;SDS011;27625;50.422;7.944;2023-10-08T11:36:27;9.73;;;4.57;;
2031;SDS011;27625;50.422;7.944;2023-10-08T11:38:55;9.63;;;4.40;;
2031;SDS011;27625;50.422;7.944;2023-10-08T11:41:28;7.23;;;4.33;;
2031;SDS011;27625;50.422;7.944;2023-10-08T11:43:56;7.30;;;4.33;;
2031;SDS011;27625;50.422;7.944;2023-10-08T11:46:24;9.17;;;3.97;;
2031;SDS011;27625;50.422;7.944;2023-10-08T11:48:58;10.23;;;5.07;;
2031;SDS011;27625;50.422;7.944;2023-10-08T11:51:33;6.47;;;3.70;;
2031;SDS011;27625;50.422;7.944;2023-10-08T11:54:01;7.10;;;3.60;;
2031;SDS011;27625;50.422;7.944;2023-10-08T11:56:31;7.80;;;3.90;;
2031;SDS011;27625;50.422;7.944;2023-10-08T11:59:01;12.37;;;6.00;;
2031;SDS011;27625;50.422;7.944;2023-10-08T12:01:35;11.33;;;4.60;;
2031;SDS011;27625;50.422;7.944;2023-10-08T12:04:03;8.27;;;4.63;;
2031;SDS011;27625;50.422;7.944;2023-10-08T12:06:32;7.10;;;4.40;;
2031;SDS011;27625;50.422;7.944;2023-10-08T12:09:00;7.93;;;4.90;;
2031;SDS011;27625;50.422;7.944;2023-10-08T12:11:38;9.30;;;4.63;;
2031;SDS011;27625;50.422;7.944;2023-10-08T12:14:05;9.80;;;4.70;;
2031;SDS011;27625;50.422;7.944;2023-10-08T12:16:32;8.37;;;4.30;;
2031;SDS011;27625;50.422;7.944;2023-10-08T12:19:01;7.80;;;4.23;;
2031;SDS011;27625;50.422;7.944;2023-10-08T12:21:42;8.70;;;4.03;;
2031;SDS011;27625;50.422;7.944;2023-10-08T12:24:11;10.33;;;5.00;;
2031;SDS011;27625;50.422;7.944;2023-10-08T12:26:38;9.27;;;4.80;;
2031;SDS011;27625;50.422;7.944;2023-10-08T12:29:11;7.33;;;3.80;;
2031;SDS011;27625;50.422;7.944;2023-10-08T12:31:39;6.57;;;3.70;;
2031;SDS011;27625;50.422;7.944;2023-10-08T12:34:08;7.67;;;5.43;;
2031;SDS011;27625;50.422;7.944;2023-10-08T12:36:38;8.33;;;5.10;;
2031;SDS011;27625;50.422;7.944;2023-10-08T12:39:08;6.10;;;3.20;;
2031;SDS011;27625;50.422;7.944;2023-10-08T12:41:41;10.00;;;4.37;;
2031;SDS011;27625;50.422;7.944;2023-10-08T12:44:10;8.07;;;4.80;;
2031;SDS011;27625;50.422;7.944;2023-10-08T12:46:37;7.97;;;3.83;;
2031;SDS011;27625;50.422;7.944;2023-10-08T12:49:05;11.30;;;4.60;;
2031;SDS011;27625;50.422;7.944;2023-10-08T12:51:32;9.33;;;4.57;;
2031;SDS011;27625;50.422;7.944;2023-10-08T12:53:59;8.87;;;4.40;;
2031;SDS011;27625;50.422;7.944;2023-10-08T12:56:33;8.47;;;4.20;;
2031;SDS011;27625;50.422;7.944;2023-10-08T12:59:11;7.30;;;4.33;;
2031;SDS011;27625;50.422;7.944;2023-10-08T13:01:45;6.87;;;4.40;;
2031;SDS011;27625;50.422;7.944;2023-10-08T13:04:16;11.17;;;5.20;;
2031;SDS011;27625;50.422;7.944;2023-10-08T13:06:53;15.30;;;4.93;;
2031;SDS011;27625;50.422;7.944;2023-10-08T13:09:22;11.30;;;4.70;;
2031;SDS011;27625;50.422;7.944;2023-10-08T13:11:50;7.30;;;4.23;;
2031;SDS011;27625;50.422;7.944;2023-10-08T13:14:18;10.63;;;5.57;;
2031;SDS011;27625;50.422;7.944;2023-10-08T13:16:47;12.90;;;6.40;;
2031;SDS011;27625;50.422;7.944;2023-10-08T13:19:18;9.10;;;4.77;;
2031;SDS011;27625;50.422;7.944;2023-10-08T13:21:45;13.13;;;5.67;;
2031;SDS011;27625;50.422;7.944;2023-10-08T13:24:13;11.20;;;5.03;;
2031;SDS011;27625;50.422;7.944;2023-10-08T13:26:42;6.70;;;3.87;;
2031;SDS011;27625;50.422;7.944;2023-10-08T13:29:14;10.40;;;4.60;;
2031;SDS011;27625;50.422;7.944;2023-10-08T13:31:43;6.00;;;3.50;;
2031;SDS011;27625;50.422;7.944;2023-10-08T13:34:11;9.77;;;4.90;;
2031;SDS011;27625;50.422;7.944;2023-10-08T13:36:41;10.03;;;4.90;;
2031;SDS011;27625;50.422;7.944;2023-10-08T13:39:12;9.37;;;4.67;;
2031;SDS011;27625;50.422;7.944;2023-10-08T13:41:43;9.47;;;4.90;;
2031;SDS011;27625;50.422;7.944;2023-10-08T13:44:14;16.00;;;4.43;;
2031;SDS011;27625;50.422;7.944;2023-10-08T13:46:41;12.37;;;4.23;;
2031;SDS011;27625;50.422;7.944;2023-10-08T13:49:14;5.40;;;3.93;;
2031;SDS011;27625;50.422;7.944;2023-10-08T13:54:28;8.33;;;4.30;;
2031;SDS011;27625;50.422;7.944;2023-10-08T13:56:59;8.47;;;3.60;;
2031;SDS011;27625;50.422;7.944;2023-10-08T13:59:28;7.40;;;3.77;;
2031;SDS011;27625;50.422;7.944;2023-10-08T14:01:57;9.63;;;4.63;;
2031;SDS011;27625;50.422;7.944;2023-10-08T14:04:29;7.97;;;4.80;;
2031;SDS011;27625;50.422;7.944;2023-10-08T14:07:03;8.67;;;4.27;;
2031;SDS011;27625;50.422;7.944;2023-10-08T14:09:30;6.50;;;4.23;;
2031;SDS011;27625;50.422;7.944;2023-10-08T14:12:01;6.70;;;4.00;;
2031;SDS011;27625;50.422;7.944;2023-10-08T14:14:30;6.20;;;4.00;;
2031;SDS011;27625;50.422;7.944;2023-10-08T14:17:01;7.70;;;4.30;;
2031;SDS011;27625;50.422;7.944;2023-10-08T14:19:31;8.70;;;4.60;;
2031;SDS011;27625;50.422;7.944;2023-10-08T14:22:04;6.63;;;3.93;;
2031;SDS011;27625;50.422;7.944;2023-10-08T14:24:34;6.87;;;3.77;;
2031;SDS011;27625;50.422;7.944;2023-10-08T14:27:04;8.73;;;4.50;;
2031;SDS011;27625;50.422;7.944;2023-10-08T14:29:37;7.43;;;4.13;;
2031;SDS011;27625;50.422;7.944;2023-10-08T14:32:06;6.63;;;4.37;;
2031;SDS011;27625;50.422;7.944;2023-10-08T14:34:34;7.07;;;4.10;;
2031;SDS011;27625;50.422;7.944;2023-10-08T14:37:20;5.70;;;3.83;;
2031;SDS011;27625;50.422;7.944;2023-10-08T14:40:06;8.07;;;3.70;;
2031;SDS011;27625;50.422;7.944;2023-10-08T14:42:51;7.60;;;3.97;;
2031;SDS011;27625;50.422;7.944;2023-10-08T14:45:23;9.27;;;4.27;;
2031;SDS011;27625;50.422;7.944;2023-10-08T14:47:52;6.30;;;4.10;;
2031;SDS011;27625;50.422;7.944;2023-10-08T14:50:21;9.20;;;5.90;;
2031;SDS011;27625;50.422;7.944;2023-10-08T14:52:48;5.97;;;3.70;;
2031;SDS011;27625;50.422;7.944;2023-10-08T14:55:16;7.60;;;4.23;;
2031;SDS011;27625;50.422;7.944;2023-10-08T14:57:49;7.90;;;4.30;;
2031;SDS011;27625;50.422;7.944;2023-10-08T15:00:18;6.80;;;4.20;;
2031;SDS011;27625;50.422;7.944;2023-10-08T15:02:51;7.93;;;5.00;;
2031;SDS011;27625;50.422;7.944;2023-10-08T15:05:20;6.97;;;4.17;;
2031;SDS011;27625;50.422;7.944;2023-10-08T15:07:49;8.43;;;4.80;;
2031;SDS011;27625;50.422;7.944;2023-10-08T15:10:19;7.30;;;4.03;;
2031;SDS011;27625;50.422;7.944;2023-10-08T15:12:47;7.90;;;4.17;;
2031;SDS011;27625;50.422;7.944;2023-10-08T15:15:14;7.90;;;4.73;;
2031;SDS011;27625;50.422;7.944;2023-10-08T15:17:41;7.60;;;4.03;;
2031;SDS011;27625;50.422;7.944;2023-10-08T15:20:11;6.53;;;4.10;;
2031;SDS011;27625;50.422;7.944;2023-10-08T15:22:41;9.53;;;4.60;;
2031;SDS011;27625;50.422;7.944;2023-10-08T15:25:08;9.90;;;5.90;;
2031;SDS011;27625;50.422;7.944;2023-10-08T15:27:36;8.10;;;5.30;;
2031;SDS011;27625;50.422;7.944;2023-10-08T15:30:07;7.73;;;4.90;;
2031;SDS011;27625;50.422;7.944;2023-10-08T15:32:37;7.70;;;4.77;;
2031;SDS011;27625;50.422;7.944;2023-10-08T15:35:05;8.83;;;5.00;;
2031;SDS011;27625;50.422;7.944;2023-10-08T15:37:35;6.60;;;4.50;;
2031;SDS011;27625;50.422;7.944;2023-10-08T15:40:03;6.50;;;4.17;;
2031;SDS011;27625;50.422;7.944;2023-10-08T15:42:32;10.30;;;4.37;;
2031;SDS011;27625;50.422;7.944;2023-10-08T15:45:00;7.60;;;3.50;;
2031;SDS011;27625;50.422;7.944;2023-10-08T15:47:28;9.00;;;4.20;;
2031;SDS011;27625;50.422;7.944;2023-10-08T15:49:56;6.53;;;3.97;;